Time;durP1;ratioP1;P1;durP2;ratioP2;P2;SDS_P1;SDS_P2;PMS_P1;PMS_P2;Temp;Humidity;BMP_temperature;BMP_pressure;BME280_temperature;BME280_humidity;BME280_pressure;Samples;Min_cycle;Max_cycle;Signal;HPM_P1;HPM_P2
2023/01/11 00:01:07;;;;;;;3.53;1.50;;;9.70;99.90;;;;;;5098944;28;20083;-72
2023/01/11 00:03:35;;;;;;;8.10;2.00;;;9.70;99.90;;;;;;5093844;28;20067;-73
2023/01/11 00:06:03;;;;;;;4.78;1.60;;;9.60;99.90;;;;;;5099790;28;20049;-73
2023/01/11 00:08:31;;;;;;;3.58;1.67;;;9.60;99.90;;;;;;5095118;28;20039;-72
2023/01/11 00:11:01;;;;;;;2.63;1.83;;;9.60;99.90;;;;;;5099131;28;20054;-72
2023/01/11 00:13:29;;;;;;;2.58;1.23;;;9.70;99.90;;;;;;5094649;28;20063;-72
2023/01/11 00:15:57;;;;;;;1.35;0.90;;;9.80;99.90;;;;;;5091270;28;20046;-74
2023/01/11 00:18:24;;;;;;;3.13;1.33;;;9.80;99.90;;;;;;5091975;28;20125;-73
2023/01/11 00:20:52;;;;;;;3.88;1.50;;;9.80;99.90;;;;;;5075789;28;20043;-73
2023/01/11 00:23:19;;;;;;;2.95;1.75;;;9.80;99.90;;;;;;5096834;28;20055;-72
2023/01/11 00:25:47;;;;;;;2.83;1.20;;;9.80;99.90;;;;;;5091504;28;20039;-73
2023/01/11 00:28:15;;;;;;;2.20;1.20;;;9.80;99.90;;;;;;5083461;28;20036;-72
2023/01/11 00:30:42;;;;;;;3.83;1.58;;;9.70;99.90;;;;;;5078234;28;20064;-73
2023/01/11 00:33:10;;;;;;;6.60;1.58;;;9.70;99.90;;;;;;5072561;28;20076;-72
2023/01/11 00:35:38;;;;;;;8.93;2.10;;;9.70;99.90;;;;;;5094126;28;20119;-73
2023/01/11 00:38:06;;;;;;;3.20;1.05;;;9.70;99.90;;;;;;5086552;28;20036;-72
2023/01/11 00:40:33;;;;;;;3.20;1.20;;;9.60;99.90;;;;;;5077746;28;20917;-72
2023/01/11 00:48:34;;;;;;;7.80;2.92;;;9.60;99.90;;;;;;5062848;27;20049;-75
2023/01/11 00:51:02;;;;;;;14.93;5.13;;;9.60;99.90;;;;;;5093423;28;20040;-75
2023/01/11 00:53:30;;;;;;;3.90;2.50;;;9.60;99.90;;;;;;5074685;28;20090;-75
2023/01/11 00:55:58;;;;;;;3.70;2.35;;;9.60;99.90;;;;;;5072053;28;20051;-76
2023/01/11 00:58:25;;;;;;;2.38;1.70;;;9.60;99.90;;;;;;5083830;28;20046;-75
2023/01/11 01:00:53;;;;;;;6.88;3.33;;;9.60;99.90;;;;;;5050866;28;20045;-75
2023/01/11 01:03:20;;;;;;;2.65;1.80;;;9.60;99.90;;;;;;5071497;28;20070;-75
2023/01/11 01:05:53;;;;;;;7.22;2.47;;;9.60;99.90;;;;;;5078741;28;20067;-76
2023/01/11 01:08:21;;;;;;;2.78;1.35;;;9.60;99.90;;;;;;5070301;28;20604;-75
2023/01/11 01:10:51;;;;;;;6.43;1.80;;;9.60;99.90;;;;;;5066185;28;20041;-76
2023/01/11 01:16:04;;;;;;;6.80;3.00;;;9.70;99.90;;;;;;5088712;28;20051;-74
2023/01/11 01:18:32;;;;;;;8.77;2.15;;;9.80;99.90;;;;;;5078845;28;20036;-75
2023/01/11 01:20:59;;;;;;;3.08;1.48;;;9.90;99.90;;;;;;5073037;28;20068;-75
2023/01/11 01:23:27;;;;;;;1.77;1.40;;;9.90;99.90;;;;;;5076545;28;20047;-74
2023/01/11 01:25:54;;;;;;;2.83;1.13;;;10.00;99.90;;;;;;5074544;28;20068;-75
2023/01/11 01:28:23;;;;;;;4.63;1.30;;;10.00;99.90;;;;;;5077337;28;20663;-75
2023/01/11 01:30:51;;;;;;;3.40;1.48;;;10.00;99.90;;;;;;5074256;28;20181;-75
2023/01/11 01:33:19;;;;;;;3.42;1.25;;;10.00;99.90;;;;;;5066952;28;20051;-75
2023/01/11 01:35:46;;;;;;;5.25;2.95;;;10.10;99.90;;;;;;5072608;28;20506;-75
2023/01/11 01:38:15;;;;;;;2.80;1.10;;;10.20;99.90;;;;;;5078874;28;20056;-75
2023/01/11 01:40:44;;;;;;;5.07;1.33;;;10.30;99.90;;;;;;5078376;28;20036;-75
2023/01/11 01:43:14;;;;;;;3.25;1.67;;;10.30;99.90;;;;;;5076493;28;20436;-75
2023/01/11 01:45:42;;;;;;;2.47;1.65;;;10.30;99.90;;;;;;5077718;28;20673;-75
2023/01/11 01:48:13;;;;;;;3.78;2.15;;;10.30;99.90;;;;;;5085657;28;20044;-75
2023/01/11 01:50:50;;;;;;;6.78;1.80;;;10.40;99.90;;;;;;5084713;28;20509;-72
2023/01/11 01:53:37;;;;;;;7.07;3.05;;;10.40;99.90;;;;;;5087820;28;20119;-72
2023/01/11 01:56:13;;;;;;;4.50;2.38;;;10.40;99.90;;;;;;5086393;28;20040;-72
2023/01/11 01:58:49;;;;;;;4.20;1.85;;;10.40;99.90;;;;;;5087547;28;20052;-73
2023/01/11 02:04:13;;;;;;;6.38;1.90;;;10.40;99.90;;;;;;5090969;28;20062;-72
2023/01/11 02:06:41;;;;;;;2.92;1.33;;;10.40;99.90;;;;;;5090708;28;20478;-72
2023/01/11 02:09:35;;;;;;;3.33;1.40;;;10.40;99.90;;;;;;5090628;28;20046;-72
2023/01/11 02:12:04;;;;;;;2.95;1.50;;;10.40;99.90;;;;;;5080162;28;20056;-72
2023/01/11 02:14:33;;;;;;;2.08;1.10;;;10.40;99.90;;;;;;5090751;28;20094;-72
2023/01/11 02:17:01;;;;;;;3.90;1.50;;;10.40;99.90;;;;;;5090987;28;20075;-72
2023/01/11 02:19:28;;;;;;;4.05;1.50;;;10.40;99.90;;;;;;5090288;28;20772;-72
2023/01/11 02:22:07;;;;;;;5.45;1.15;;;10.50;99.90;;;;;;5091067;28;20130;-72
2023/01/11 02:24:56;;;;;;;2.85;1.45;;;10.40;99.90;;;;;;5091110;28;20044;-72
2023/01/11 02:27:42;;;;;;;1.77;1.00;;;10.40;99.90;;;;;;5092442;28;20044;-72
2023/01/11 02:30:40;;;;;;;4.57;1.52;;;10.40;99.90;;;;;;5092323;28;20219;-72
2023/01/11 02:33:37;;;;;;;0.60;0.60;;;10.40;99.90;;;;;;5071829;28;20117;-72
2023/01/11 02:36:25;;;;;;;4.45;0.93;;;10.50;99.90;;;;;;5072131;28;20127;-72
2023/01/11 02:39:15;;;;;;;1.38;0.90;;;10.40;99.90;;;;;;5070451;28;20095;-72
2023/01/11 02:45:00;;;;;;;4.55;1.63;;;10.50;99.90;;;;;;5092009;28;20067;-72
2023/01/11 02:47:50;;;;;;;1.77;1.50;;;10.50;99.90;;;;;;5092271;28;20036;-73
2023/01/11 02:50:39;;;;;;;2.42;1.42;;;10.40;99.90;;;;;;5091844;28;20150;-72
2023/01/11 02:53:24;;;;;;;5.32;1.52;;;10.40;99.90;;;;;;5089687;28;20444;-73
2023/01/11 02:55:58;;;;;;;2.00;1.23;;;10.40;99.90;;;;;;5090694;28;20068;-73
2023/01/11 02:58:29;;;;;;;2.67;1.20;;;10.50;99.90;;;;;;5089471;28;20051;-74
2023/01/11 03:00:57;;;;;;;3.38;1.42;;;10.50;99.90;;;;;;5073821;28;20059;-72
2023/01/11 03:03:28;;;;;;;2.30;0.90;;;10.50;99.90;;;;;;5087366;28;20106;-72
2023/01/11 03:06:04;;;;;;;3.45;1.00;;;10.60;99.90;;;;;;5067525;28;20379;-72
2023/01/11 03:09:02;;;;;;;2.17;1.70;;;10.50;99.90;;;;;;5087026;28;20040;-72
2023/01/11 03:14:36;;;;;;;2.78;1.40;;;10.60;99.90;;;;;;5070965;28;20048;-73
2023/01/11 03:17:19;;;;;;;2.55;1.30;;;10.60;99.90;;;;;;5071161;28;20069;-73
2023/01/11 03:19:53;;;;;;;2.45;1.63;;;10.60;99.90;;;;;;5070764;28;20041;-72
2023/01/11 03:22:29;;;;;;;3.25;1.05;;;10.60;99.90;;;;;;5072515;28;20797;-73
2023/01/11 03:25:03;;;;;;;;;;;10.60;99.90;;;;;;5089641;28;20040;-73
2023/01/11 03:27:36;;;;;;;3.17;1.40;;;10.60;99.90;;;;;;5089304;28;19935;-72
2023/01/11 03:30:33;;;;;;;2.70;0.90;;;10.60;99.90;;;;;;5072853;28;20363;-72
2023/01/11 03:33:21;;;;;;;1.45;0.90;;;10.60;99.90;;;;;;5090137;28;20076;-73
2023/01/11 03:36:09;;;;;;;2.67;1.02;;;10.70;99.90;;;;;;5069120;28;20051;-73
2023/01/11 03:38:58;;;;;;;4.68;1.20;;;10.70;99.90;;;;;;5069530;28;20442;-72
2023/01/11 03:41:33;;;;;;;2.53;1.10;;;10.70;99.90;;;;;;5071093;28;20076;-72
2023/01/11 03:44:05;;;;;;;6.72;1.98;;;10.70;99.90;;;;;;5071285;28;20816;-72
2023/01/11 03:46:47;;;;;;;2.70;1.20;;;10.70;99.90;;;;;;5090787;28;20134;-72
2023/01/11 03:49:29;;;;;;;2.35;1.50;;;10.70;99.90;;;;;;5090407;28;20068;-73
2023/01/11 03:51:59;;;;;;;2.78;1.02;;;10.70;99.90;;;;;;5090997;28;20436;-72
2023/01/11 03:54:29;;;;;;;3.03;1.20;;;10.70;99.90;;;;;;5090359;28;20060;-72
2023/01/11 03:57:14;;;;;;;3.63;1.15;;;10.70;99.90;;;;;;5089218;28;20458;-73
2023/01/11 03:59:42;;;;;;;2.17;1.30;;;10.70;99.90;;;;;;5089554;28;20593;-72
2023/01/11 04:02:23;;;;;;;1.45;1.08;;;10.70;99.90;;;;;;5089404;28;20052;-72
2023/01/11 04:04:50;;;;;;;1.77;1.02;;;10.70;99.90;;;;;;5089100;28;20064;-72
2023/01/11 04:07:18;;;;;;;4.78;1.48;;;10.70;99.90;;;;;;5090292;28;20374;-73
2023/01/11 04:09:45;;;;;;;3.17;1.20;;;10.80;99.90;;;;;;5089771;28;20052;-72
2023/01/11 04:12:13;;;;;;;1.80;1.02;;;10.80;99.90;;;;;;5090355;28;20048;-73
2023/01/11 04:14:40;;;;;;;3.03;1.52;;;10.80;99.90;;;;;;5072037;28;20054;-72
2023/01/11 04:17:08;;;;;;;1.40;0.90;;;10.80;99.90;;;;;;5089415;28;20743;-73
2023/01/11 04:19:35;;;;;;;1.63;0.93;;;10.80;99.90;;;;;;5088797;28;20044;-73
2023/01/11 04:22:03;;;;;;;2.13;1.33;;;10.80;99.90;;;;;;5089619;28;20168;-72
2023/01/11 04:24:30;;;;;;;1.30;0.80;;;10.80;99.90;;;;;;5090023;28;20074;-72
2023/01/11 04:26:58;;;;;;;3.50;1.95;;;10.80;99.90;;;;;;5071989;28;20060;-73
2023/01/11 04:29:25;;;;;;;20.60;2.10;;;10.80;99.90;;;;;;5071015;28;20112;-72
2023/01/11 04:31:53;;;;;;;1.48;1.00;;;10.80;99.90;;;;;;5089666;28;20135;-72
2023/01/11 04:34:20;;;;;;;1.80;1.00;;;10.80;99.90;;;;;;5088377;28;20127;-72
2023/01/11 04:36:48;;;;;;;2.08;0.82;;;10.80;99.90;;;;;;5090275;28;20610;-72
2023/01/11 04:39:15;;;;;;;3.25;1.65;;;10.80;99.90;;;;;;5088495;28;20040;-72
2023/01/11 04:44:29;;;;;;;2.20;0.90;;;10.80;99.90;;;;;;5088260;28;20059;-73
2023/01/11 04:46:56;;;;;;;2.40;1.10;;;10.80;99.90;;;;;;5089820;28;20044;-72
2023/01/11 04:49:23;;;;;;;3.80;1.30;;;10.80;99.90;;;;;;5089556;28;20178;-72
2023/01/11 04:51:51;;;;;;;5.30;1.70;;;10.80;99.90;;;;;;5089219;28;20556;-72
2023/01/11 04:54:18;;;;;;;2.83;1.90;;;10.80;99.90;;;;;;5087666;28;20128;-73
2023/01/11 04:56:46;;;;;;;3.88;1.17;;;10.80;99.90;;;;;;5089027;28;20032;-72
2023/01/11 04:59:14;;;;;;;3.20;1.48;;;10.80;99.90;;;;;;5071605;28;20048;-73
2023/01/11 05:01:41;;;;;;;3.72;1.63;;;10.90;99.90;;;;;;5089174;28;20052;-72
2023/01/11 05:04:09;;;;;;;2.25;1.30;;;10.80;99.90;;;;;;5088125;28;20051;-73
2023/01/11 05:06:39;;;;;;;4.32;1.50;;;10.80;99.90;;;;;;5089605;28;20059;-73
2023/01/11 05:09:12;;;;;;;2.95;2.13;;;10.80;99.90;;;;;;5089278;28;20043;-73
2023/01/11 05:11:39;;;;;;;2.35;1.25;;;10.80;99.90;;;;;;5087694;28;20166;-73
2023/01/11 05:14:07;;;;;;;1.55;0.90;;;10.80;99.90;;;;;;5088557;28;20431;-73
2023/01/11 05:16:35;;;;;;;1.73;0.98;;;10.80;99.90;;;;;;5088226;28;20047;-73
2023/01/11 05:19:03;;;;;;;2.65;1.20;;;10.80;99.90;;;;;;5088850;28;20048;-73
2023/01/11 05:21:36;;;;;;;1.45;1.02;;;10.80;99.90;;;;;;5088941;28;20445;-73
2023/01/11 05:24:06;;;;;;;2.30;1.23;;;10.80;99.90;;;;;;5088855;28;20050;-73
2023/01/11 05:26:36;;;;;;;3.65;1.52;;;10.90;99.90;;;;;;5087245;28;20123;-73
2023/01/11 05:29:10;;;;;;;2.30;1.17;;;10.80;99.90;;;;;;5069553;28;20055;-73
2023/01/11 05:31:39;;;;;;;2.05;0.90;;;10.80;99.90;;;;;;5068647;28;20045;-73
2023/01/11 05:34:06;;;;;;;1.73;1.15;;;10.80;99.90;;;;;;5070848;28;20048;-72
2023/01/11 05:36:34;;;;;;;3.88;1.15;;;10.80;99.90;;;;;;5088040;28;20123;-74
2023/01/11 05:39:03;;;;;;;1.33;0.95;;;10.80;99.90;;;;;;5089295;28;20081;-73
2023/01/11 05:41:31;;;;;;;1.98;1.13;;;10.80;99.90;;;;;;5088842;28;20474;-72
2023/01/11 05:46:45;;;;;;;1.70;1.00;;;10.80;99.90;;;;;;5088816;28;20135;-73
2023/01/11 05:49:13;;;;;;;4.47;2.03;;;10.80;99.90;;;;;;5088658;28;20055;-72
2023/01/11 05:51:42;;;;;;;5.13;1.63;;;10.80;99.90;;;;;;5088881;28;20565;-73
2023/01/11 05:54:12;;;;;;;3.45;1.13;;;10.80;99.90;;;;;;5088854;28;20048;-73
2023/01/11 05:56:41;;;;;;;2.10;1.30;;;10.80;99.90;;;;;;5087825;28;20577;-72
2023/01/11 05:59:09;;;;;;;2.55;1.30;;;10.70;99.90;;;;;;5088355;28;20044;-72
2023/01/11 06:01:37;;;;;;;3.03;1.30;;;10.70;99.90;;;;;;5087059;28;20397;-73
2023/01/11 06:04:05;;;;;;;2.92;1.00;;;10.80;99.90;;;;;;5070211;28;20067;-73
2023/01/11 06:06:32;;;;;;;2.28;1.20;;;10.80;99.90;;;;;;5085916;28;20155;-73
2023/01/11 06:09:00;;;;;;;5.82;1.42;;;10.80;99.90;;;;;;5087533;28;20055;-72
2023/01/11 06:11:27;;;;;;;2.20;1.30;;;10.80;99.90;;;;;;5086434;28;20066;-72
2023/01/11 06:13:55;;;;;;;2.88;1.17;;;10.80;99.90;;;;;;5087987;28;20079;-73
2023/01/11 06:16:23;;;;;;;3.67;1.23;;;10.80;99.90;;;;;;5088209;28;20058;-72
2023/01/11 06:18:51;;;;;;;3.72;1.67;;;10.80;99.90;;;;;;5087561;28;20067;-73
2023/01/11 06:21:20;;;;;;;2.17;1.58;;;10.80;99.90;;;;;;5070300;28;20040;-73
2023/01/11 06:23:49;;;;;;;2.53;1.48;;;10.80;99.90;;;;;;5087400;28;20146;-73
2023/01/11 06:26:20;;;;;;;2.75;1.20;;;10.90;99.90;;;;;;5086407;28;20483;-73
2023/01/11 06:28:48;;;;;;;2.92;1.30;;;11.00;99.90;;;;;;5086616;28;20056;-73
2023/01/11 06:31:16;;;;;;;3.88;1.40;;;11.20;99.90;;;;;;5086525;28;20036;-73
2023/01/11 06:33:45;;;;;;;2.80;1.60;;;11.20;99.90;;;;;;5087377;28;20048;-73
2023/01/11 06:36:13;;;;;;;7.15;1.60;;;11.20;99.90;;;;;;5087776;28;20032;-74
2023/01/11 06:38:42;;;;;;;4.35;1.73;;;11.20;99.90;;;;;;5086457;28;20052;-73
2023/01/11 06:41:11;;;;;;;6.80;1.58;;;11.10;99.90;;;;;;5086946;28;20477;-73
2023/01/11 06:43:40;;;;;;;5.18;1.73;;;11.10;99.90;;;;;;5086626;28;20036;-73
2023/01/11 06:46:15;;;;;;;3.25;1.42;;;11.00;99.90;;;;;;5089889;28;20109;-73
2023/01/11 06:48:44;;;;;;;5.90;2.78;;;11.00;99.90;;;;;;5090654;28;20110;-73
2023/01/11 06:51:12;;;;;;;2.70;1.45;;;11.00;99.90;;;;;;5091445;28;20471;-73
2023/01/11 06:53:42;;;;;;;4.30;1.92;;;10.90;99.90;;;;;;5090831;28;20439;-72
2023/01/11 06:56:12;;;;;;;1.92;1.13;;;10.90;99.90;;;;;;5091915;28;20390;-72
2023/01/11 06:58:40;;;;;;;2.10;1.10;;;10.90;99.90;;;;;;5089809;28;20052;-72
2023/01/11 07:01:11;;;;;;;4.45;1.92;;;10.90;99.90;;;;;;5072723;28;20154;-72
2023/01/11 07:03:40;;;;;;;3.40;1.30;;;11.00;99.90;;;;;;5092016;28;20148;-72
2023/01/11 07:06:08;;;;;;;3.75;1.13;;;11.00;99.90;;;;;;5058780;28;20055;-72
2023/01/11 07:08:37;;;;;;;4.65;2.35;;;10.90;99.90;;;;;;5078199;28;20509;-73
2023/01/11 07:11:04;;;;;;;5.80;1.77;;;11.00;99.90;;;;;;5089823;28;20122;-73
2023/01/11 07:13:32;;;;;;;3.80;1.50;;;11.00;99.90;;;;;;5090332;28;20036;-73
2023/01/11 07:16:00;;;;;;;2.85;1.60;;;11.10;99.90;;;;;;5091105;28;20040;-73
2023/01/11 07:18:30;;;;;;;4.40;2.00;;;11.10;99.90;;;;;;5089474;28;20348;-72
2023/01/11 07:20:58;;;;;;;3.47;1.50;;;11.20;99.90;;;;;;5090903;28;20040;-72
2023/01/11 07:23:26;;;;;;;3.95;2.03;;;11.20;99.90;;;;;;5090700;28;20043;-73
2023/01/11 07:25:53;;;;;;;5.97;2.00;;;11.60;99.90;;;;;;5073194;28;20544;-73
2023/01/11 07:28:20;;;;;;;5.88;1.63;;;12.20;99.90;;;;;;5090417;28;20044;-73
2023/01/11 07:30:48;;;;;;;4.70;3.03;;;13.00;99.90;;;;;;5091519;28;20405;-73
2023/01/11 07:33:25;;;;;;;9.15;2.13;;;13.70;99.90;;;;;;5089835;28;20105;-73
2023/01/11 07:35:53;;;;;;;3.20;2.40;;;13.70;99.90;;;;;;5091013;28;20059;-73
2023/01/11 07:38:20;;;;;;;5.05;2.25;;;13.40;99.90;;;;;;5090619;28;20047;-73
2023/01/11 07:40:48;;;;;;;4.47;1.52;;;13.10;99.90;;;;;;5087690;28;20064;-72
2023/01/11 07:43:18;;;;;;;3.13;1.55;;;12.80;99.90;;;;;;5068924;28;20075;-74
2023/01/11 07:45:48;;;;;;;5.05;2.63;;;12.50;99.90;;;;;;5074504;28;20083;-73
2023/01/11 07:48:23;;;;;;;3.03;1.80;;;12.40;99.90;;;;;;5090588;28;20047;-73
2023/01/11 07:50:52;;;;;;;3.77;2.00;;;12.50;99.90;;;;;;5089663;28;20051;-73
2023/01/11 07:53:20;;;;;;;5.88;2.20;;;12.60;99.90;;;;;;5072691;28;20079;-73
2023/01/11 07:55:49;;;;;;;3.22;2.10;;;12.80;99.90;;;;;;5089384;28;20125;-73
2023/01/11 07:58:19;;;;;;;3.88;2.05;;;12.70;99.90;;;;;;5089219;28;20482;-73
2023/01/11 08:00:46;;;;;;;2.30;1.60;;;12.60;99.90;;;;;;5090318;28;20050;-72
2023/01/11 08:03:14;;;;;;;6.32;2.15;;;12.50;99.90;;;;;;5090528;28;20430;-73
2023/01/11 08:05:42;;;;;;;3.47;1.90;;;12.30;99.90;;;;;;5089648;28;20048;-73
2023/01/11 08:08:09;;;;;;;3.35;2.10;;;12.10;99.90;;;;;;5088535;28;20046;-73
2023/01/11 08:10:37;;;;;;;6.57;2.03;;;12.00;99.90;;;;;;5090124;28;20044;-73
2023/01/11 08:15:57;;;;;;;8.60;2.50;;;11.80;99.90;;;;;;5071567;28;20051;-73
2023/01/11 08:18:25;;;;;;;2.67;1.75;;;11.60;99.90;;;;;;5087265;28;20055;-73
2023/01/11 08:20:52;;;;;;;4.10;1.52;;;11.60;99.90;;;;;;5072045;28;20044;-73
2023/01/11 08:23:20;;;;;;;3.80;3.10;;;11.40;99.90;;;;;;5088389;28;20047;-73
2023/01/11 08:25:47;;;;;;;3.67;1.85;;;11.30;99.90;;;;;;5088058;28;20056;-73
2023/01/11 08:28:15;;;;;;;3.08;2.17;;;11.20;99.90;;;;;;5088905;28;20118;-74
2023/01/11 08:30:43;;;;;;;4.10;2.13;;;11.10;99.90;;;;;;5089761;28;20097;-73
2023/01/11 08:33:10;;;;;;;3.63;2.38;;;11.00;99.90;;;;;;5089660;28;20072;-73
2023/01/11 08:35:38;;;;;;;6.38;3.00;;;10.90;99.90;;;;;;5089773;28;20094;-73
2023/01/11 08:38:07;;;;;;;8.00;2.80;;;10.80;99.90;;;;;;5089916;28;20075;-73
2023/01/11 08:40:35;;;;;;;4.63;2.40;;;10.60;99.90;;;;;;5070862;28;20892;-73
2023/01/11 08:43:02;;;;;;;4.57;2.97;;;10.60;99.90;;;;;;5090053;28;20068;-73
2023/01/11 08:45:30;;;;;;;4.85;3.45;;;10.70;99.90;;;;;;5089169;28;20043;-73
2023/01/11 08:47:59;;;;;;;3.92;2.53;;;10.70;99.90;;;;;;5085250;28;20676;-73
2023/01/11 08:50:27;;;;;;;4.78;2.53;;;10.70;99.90;;;;;;5077372;28;20139;-74
2023/01/11 08:52:54;;;;;;;5.43;2.97;;;10.70;99.90;;;;;;5088719;28;20089;-73
2023/01/11 08:55:22;;;;;;;5.55;2.55;;;10.60;99.90;;;;;;5080082;28;20040;-73
2023/01/11 08:57:49;;;;;;;4.07;2.03;;;10.60;99.90;;;;;;5073295;28;20051;-73
2023/01/11 09:00:18;;;;;;;4.22;2.38;;;10.60;99.90;;;;;;5088309;28;20048;-74
2023/01/11 09:02:45;;;;;;;5.15;2.92;;;10.60;99.90;;;;;;5084288;28;20036;-73
2023/01/11 09:05:13;;;;;;;6.35;2.00;;;10.60;99.90;;;;;;5076279;28;20064;-73
2023/01/11 09:07:43;;;;;;;5.00;3.03;;;10.50;99.90;;;;;;5081270;22;20376;-74
2023/01/11 09:10:10;;;;;;;4.57;3.30;;;10.50;99.90;;;;;;5060433;28;20059;-74
2023/01/11 09:12:38;;;;;;;7.43;4.40;;;10.60;99.90;;;;;;5014275;28;20045;-73
2023/01/11 09:15:06;;;;;;;4.78;2.78;;;10.60;99.90;;;;;;5048793;28;20523;-74
2023/01/11 09:17:33;;;;;;;13.55;7.30;;;10.60;99.90;;;;;;5031293;28;20472;-74
2023/01/11 09:20:01;;;;;;;7.78;4.95;;;10.60;99.90;;;;;;5051529;28;20497;-73
2023/01/11 09:22:29;;;;;;;13.90;5.38;;;10.70;99.90;;;;;;5022613;28;20099;-73
2023/01/11 09:25:00;;;;;;;5.72;3.33;;;10.70;99.90;;;;;;5062777;22;20043;31
2023/01/11 09:27:28;;;;;;;5.63;3.80;;;10.70;99.90;;;;;;5046914;28;19992;-73
2023/01/11 09:29:55;;;;;;;8.25;5.57;;;10.70;99.90;;;;;;5048318;28;20128;-73
2023/01/11 09:32:23;;;;;;;5.57;3.28;;;10.80;99.90;;;;;;5047976;28;20049;-74
2023/01/11 09:34:56;;;;;;;5.90;2.38;;;10.70;99.90;;;;;;5044553;28;20099;-73
2023/01/11 09:37:23;;;;;;;4.72;2.28;;;10.60;99.90;;;;;;5011694;28;20045;-73
2023/01/11 09:39:51;;;;;;;3.58;2.30;;;10.60;99.90;;;;;;5028642;28;20038;-73
2023/01/11 09:42:39;;;;;;;5.00;2.05;;;10.60;99.90;;;;;;5042719;28;20041;-73
2023/01/11 09:45:23;;;;;;;4.07;1.63;;;10.60;99.90;;;;;;5026553;28;20087;-73
2023/01/11 09:48:10;;;;;;;3.45;2.00;;;10.70;99.90;;;;;;5042226;28;20543;-73
2023/01/11 09:50:44;;;;;;;8.02;4.15;;;10.70;99.90;;;;;;5028177;28;20045;-73
2023/01/11 09:53:21;;;;;;;7.13;3.40;;;10.70;99.90;;;;;;5010968;28;20164;-73
2023/01/11 09:55:51;;;;;;;7.50;4.10;;;10.80;99.90;;;;;;5036490;28;20066;-73
2023/01/11 09:58:37;;;;;;;6.70;4.40;;;10.80;99.90;;;;;;5029106;28;20055;-74
2023/01/11 10:01:09;;;;;;;8.52;5.80;;;10.70;99.90;;;;;;5048276;28;20470;-73
2023/01/11 10:04:02;;;;;;;10.05;5.00;;;10.60;99.90;;;;;;5048211;28;20098;-73
2023/01/11 10:06:59;;;;;;;6.80;5.25;;;10.60;99.90;;;;;;5010111;28;20121;-73
2023/01/11 10:09:33;;;;;;;;;;;10.60;99.90;;;;;;4994837;28;20054;-73
2023/01/11 10:12:11;;;;;;;7.22;4.22;;;10.60;99.90;;;;;;5027299;28;19993;-73
2023/01/11 10:14:42;;;;;;;11.70;4.78;;;10.50;99.90;;;;;;5038769;22;20496;-73
2023/01/11 10:17:20;;;;;;;9.75;4.15;;;10.60;99.90;;;;;;5037756;28;20071;-73
2023/01/11 10:19:56;;;;;;;7.43;4.05;;;10.60;99.90;;;;;;5032055;28;20131;-73
2023/01/11 10:22:32;;;;;;;9.80;3.88;;;10.60;99.90;;;;;;5052639;28;20498;-73
2023/01/11 10:25:06;;;;;;;10.02;3.78;;;10.50;99.90;;;;;;5048907;28;20163;-73
2023/01/11 10:27:39;;;;;;;9.65;4.35;;;10.60;99.90;;;;;;5057958;28;20195;-74
2023/01/11 10:36:33;;;;;;;3.85;2.15;;;10.60;99.90;;;;;;5037581;28;20056;-73
2023/01/11 10:42:24;;;;;;;6.53;4.30;;;10.60;99.90;;;;;;5030083;28;20061;-72
2023/01/11 10:45:00;;;;;;;11.85;4.03;;;10.50;99.90;;;;;;5032545;28;20037;-73
2023/01/11 10:47:40;;;;;;;5.93;3.22;;;10.50;99.90;;;;;;5021892;28;20065;-73
2023/01/11 10:50:38;;;;;;;6.80;3.30;;;10.40;99.90;;;;;;5013623;28;20060;-74
2023/01/11 10:53:26;;;;;;;8.85;3.00;;;10.40;99.90;;;;;;5014596;28;20517;-73
2023/01/11 10:56:03;;;;;;;5.88;2.63;;;10.30;99.90;;;;;;5098159;22;20060;-73
2023/01/11 10:59:12;;;;;;;5.18;1.67;;;10.30;99.90;;;;;;5083578;28;20044;-72
2023/01/11 11:01:51;;;;;;;;;;;10.20;99.90;;;;;;5069011;28;20063;-73
2023/01/11 11:04:31;;;;;;;3.75;1.85;;;10.20;99.90;;;;;;5104406;27;19923;-74
2023/01/11 11:07:24;;;;;;;6.72;1.75;;;10.20;99.90;;;;;;5098212;22;20133;-73
2023/01/11 11:10:17;;;;;;;6.13;1.70;;;10.10;99.90;;;;;;5072174;28;20060;-73
2023/01/11 11:13:08;;;;;;;3.40;1.83;;;10.10;99.90;;;;;;5073854;28;20047;-73
2023/01/11 11:15:46;;;;;;;5.35;3.60;;;10.10;99.90;;;;;;5124199;27;20047;-73
2023/01/11 11:18:14;;;;;;;10.65;5.50;;;10.20;99.90;;;;;;5116836;27;20043;-75
2023/01/11 11:20:43;;;;;;;8.80;4.60;;;10.20;99.90;;;;;;5114241;27;20054;-75
2023/01/11 11:23:17;;;;;;;5.32;3.78;;;10.30;99.90;;;;;;5108234;27;20050;-74
2023/01/11 11:25:56;;;;;;;4.40;2.05;;;10.40;99.90;;;;;;5091219;27;20043;-74
2023/01/11 11:28:30;;;;;;;4.40;2.40;;;10.40;99.90;;;;;;5106626;28;20505;-73
2023/01/11 11:31:05;;;;;;;3.08;2.08;;;10.40;99.90;;;;;;5063614;28;20123;-74
2023/01/11 11:33:39;;;;;;;4.55;2.90;;;10.40;99.90;;;;;;5081786;28;20405;-74
2023/01/11 11:36:10;;;;;;;21.77;12.23;;;10.50;99.90;;;;;;5084652;28;20768;-73
2023/01/11 11:39:00;;;;;;;18.90;8.60;;;10.70;99.90;;;;;;5090386;28;20398;-73
2023/01/11 11:41:27;;;;;;;13.70;6.95;;;10.90;99.90;;;;;;5082645;28;20043;-72
2023/01/11 11:44:20;;;;;;;13.63;6.22;;;11.20;99.90;;;;;;5077242;28;20039;-73
2023/01/11 11:47:03;;;;;;;5.75;4.00;;;11.60;99.90;;;;;;5091994;27;20189;-75
2023/01/11 11:49:35;;;;;;;7.57;2.97;;;11.90;99.90;;;;;;5119086;27;20397;-74
2023/01/11 11:52:04;;;;;;;5.38;3.40;;;12.30;99.90;;;;;;5102076;27;20118;-74
2023/01/11 11:54:55;;;;;;;6.15;2.60;;;12.40;99.90;;;;;;5100674;27;20424;-74
2023/01/11 11:57:30;;;;;;;2.85;2.40;;;12.60;99.90;;;;;;5092437;27;20059;-74
2023/01/11 12:00:08;;;;;;;4.07;2.78;;;12.80;99.90;;;;;;5107420;27;20051;-73
2023/01/11 12:02:39;;;;;;;4.68;2.60;;;13.00;99.90;;;;;;5101454;22;20179;-73
2023/01/11 12:05:09;;;;;;;5.53;3.25;;;13.20;99.90;;;;;;5079487;28;20447;-74
2023/01/11 12:07:43;;;;;;;6.78;3.13;;;13.30;99.90;;;;;;5082797;28;20047;-73
2023/01/11 12:10:23;;;;;;;7.68;4.85;;;13.40;99.90;;;;;;5069417;28;20060;-73
2023/01/11 12:12:55;;;;;;;6.82;2.88;;;13.50;99.90;;;;;;5051767;28;20580;-74
2023/01/11 12:15:30;;;;;;;4.05;2.78;;;13.60;99.90;;;;;;5070246;28;20059;-73
2023/01/11 12:18:27;;;;;;;7.25;2.35;;;13.60;99.90;;;;;;5087776;28;20093;-73
2023/01/11 12:20:55;;;;;;;5.90;2.58;;;13.40;99.90;;;;;;5054088;28;20104;-74
2023/01/11 12:23:25;;;;;;;5.18;2.20;;;13.20;99.90;;;;;;5078820;28;20139;-72
2023/01/11 12:25:55;;;;;;;7.45;2.60;;;13.10;99.90;;;;;;5047641;28;20407;-74
2023/01/11 12:28:48;;;;;;;6.65;2.88;;;12.80;99.90;;;;;;5063535;28;20052;-71
2023/01/11 12:31:36;;;;;;;7.40;4.13;;;12.70;99.90;;;;;;5073211;28;20047;-74
2023/01/11 12:34:27;;;;;;;6.28;2.47;;;12.50;99.90;;;;;;5069304;28;20048;-73
2023/01/11 12:37:15;;;;;;;3.35;2.53;;;12.40;99.90;;;;;;5061205;28;20128;-73
2023/01/11 12:39:55;;;;;;;4.45;2.22;;;12.40;99.90;;;;;;5061298;28;20044;-74
2023/01/11 12:42:57;;;;;;;7.40;3.38;;;12.50;99.90;;;;;;5058410;28;20436;-76
2023/01/11 12:45:39;;;;;;;5.03;2.40;;;12.50;99.90;;;;;;5071295;28;20045;-76
2023/01/11 12:48:33;;;;;;;5.45;2.83;;;12.50;99.90;;;;;;5069284;28;20101;-73
2023/01/11 12:51:09;;;;;;;6.63;3.00;;;12.50;99.90;;;;;;5072150;28;20286;-73
2023/01/11 12:53:49;;;;;;;4.13;2.15;;;12.40;99.90;;;;;;5076350;28;20064;-72
2023/01/11 12:56:31;;;;;;;2.97;2.00;;;12.30;99.90;;;;;;5072767;28;20033;-74
2023/01/11 12:59:20;;;;;;;1.98;1.40;;;12.10;99.90;;;;;;5075523;28;20036;-73
2023/01/11 13:02:02;;;;;;;2.88;1.30;;;12.00;99.90;;;;;;5085641;28;20040;-73
2023/01/11 13:04:56;;;;;;;3.95;1.60;;;11.90;99.90;;;;;;5039313;28;20049;-73
2023/01/11 13:08:07;;;;;;;3.63;1.92;;;11.80;99.90;;;;;;5007531;28;20163;-73
2023/01/11 13:10:53;;;;;;;3.85;2.45;;;11.50;99.90;;;;;;5073441;28;20761;-75
2023/01/11 13:13:26;;;;;;;3.35;2.10;;;11.30;99.90;;;;;;5055357;28;20075;-73
2023/01/11 13:16:04;;;;;;;5.05;2.70;;;11.20;99.90;;;;;;5076401;28;20055;-72
2023/01/11 13:19:08;;;;;;;9.13;3.03;;;11.10;99.90;;;;;;5018181;28;20106;-73
2023/01/11 13:21:43;;;;;;;6.50;4.22;;;11.10;99.90;;;;;;5071944;28;20146;-73
2023/01/11 13:24:24;;;;;;;9.38;4.15;;;11.10;99.90;;;;;;5073107;28;20049;-73
2023/01/11 13:26:57;;;;;;;4.45;3.03;;;11.10;99.90;;;;;;5060943;28;20344;-73
2023/01/11 13:29:30;;;;;;;6.50;2.60;;;11.10;99.90;;;;;;5073626;28;20121;-75
2023/01/11 13:32:01;;;;;;;6.05;3.10;;;11.00;99.90;;;;;;5043179;28;20136;-74
2023/01/11 13:34:39;;;;;;;5.10;3.50;;;10.90;99.90;;;;;;5074789;28;20063;-73
2023/01/11 13:37:25;;;;;;;4.43;3.00;;;10.80;99.90;;;;;;5063884;28;20044;-74
2023/01/11 13:40:06;;;;;;;7.43;3.50;;;10.80;99.90;;;;;;5063929;28;20150;-73
2023/01/11 13:42:45;;;;;;;7.90;3.83;;;10.70;99.90;;;;;;5047832;28;20156;-73
2023/01/11 13:45:37;;;;;;;4.90;3.17;;;10.90;99.90;;;;;;5071944;28;20039;-73
2023/01/11 13:48:27;;;;;;;4.95;3.28;;;11.00;99.90;;;;;;5020260;28;20057;-74
2023/01/11 13:51:01;;;;;;;2.90;2.60;;;11.00;99.90;;;;;;5048508;28;20059;-72
2023/01/11 13:53:52;;;;;;;5.88;2.70;;;11.10;99.90;;;;;;5042502;28;20052;-74
2023/01/11 14:15:59;;;;;;;6.80;4.43;;;11.00;99.90;;;;;;5104230;27;20444;-73